Where is Fonte das Bicas in Portugal?

 

Fonte das Bicas is situated in the region Evora in Portugal!

Search the name of a city:

Fontana del Trianon, Fontaine Cuvier, Fontaine Collobert, Fontabelle, Fontinha

Here you will find the location of Fonte das Bicas on a map.
To see how it currently looks like outside, below are some pictures of the area from online web cameras.
You can also find the distance to the main cities in the region and to cities in the rest of Portugal.

All places in the world called .


Where is Fonte das Bicas on the map?




Webcams near Fonte das Bicas

Ponte de Sôr › North-East.


Ponte de Sôr › North-East - Day time
Current
Ponte de Sôr › North-East - Current

Abrantes › North-West: › North-West: Zona Alta (Torre).


Abrantes › North-West: › North-West: Zona Alta (Torre) - Day time
Current
Abrantes › North-West: › North-West: Zona Alta (Torre) - Current

Benavente › North-East: AIrport, METAR: BENAV 180005Z 36004KT 17/14 Q1015.


Benavente › North-East: AIrport, METAR: BENAV 180005Z 36004KT 17/14 Q1015 - Day time
Current
Benavente › North-East: AIrport, METAR: BENAV 180005Z 36004KT 17/14 Q1015 - Current

Webcams provided by webcams.travel


Distances

Where is Fonte das Bicas relative to other places?

Top 10 cities in Evora and distance from Fonte das Bicas.

City#Populationkmmiles
Évora1458514528
Montemor-o-Novo2128547144
Vendas Novas3112489257
Estremoz493492314
Reguengos de Monsaraz572173220
Redondo65845149
Vila Viçosa7548485
Borba84586138
Adaval9-2113
Agua d' Alte10-149

Top 10 cities in Portugal and distance from Fonte das Bicas.

City # Populationkmmiles
Lisbon151779815093
Porto2249630291181
Amadora317885615999
Braga4121393328204
Setúbal511710913282
Coimbra6106580188117
Queluz7103398161100
Funchal8980411091678
Vila Nova de Gaia970810290180
Loures106623015496



Alerts and advice Portugal

Advice and information about traveling and security in Portugal.

With a travel advise, tourists can be informed about security risks during traveling or vacation in a foreign country. Be informed about the risks of kidnapping, armed robbery, bombings, natural disasters or war. Know which areas are unsafe in Portugalo. Be vigilant, or avoid certain areas when on vacation in Portugal.

Alerts and advice



Travel information Portugal

Information on travel documents, visa applications and the cost of a visa.
Contact information of embassies in Portugal.
Different types of travel insurance.

Travel information

Info

Statistics and Geographics

Portugal is made up of 15299 cities in 20 regions.

The region Evora has 425 cities.

Where is Fonte das Bicas in Portugal?